WXM80 ListenWXM80 Stop

You find our weather info also at:

UK Metoffice

WeatherCloud

Weather Underground

Northeastern Weather Network

AWEKAS

Citizen Weather Observer Program (CWOP)

HAMweather, WeatherForYou, PWS Weather


Weather Underground History page Text

Daily Summary for August 26, 2017 Units:  English    Metric   Both
« Previous Day
Next Day »
Daily Weekly Monthly Yearly Custom
  High: Low: Average:
Temperature: 80.5 °F 59.5 °F 69.6 °F
Dew Point: 60.6 °F 50.6 °F 56.2 °F
Humidity: 84 % 39 % 64 %
Wind Speed: 7.8 mph 0.0 mph 1.6 mph
Wind Gust: 12.0 mph - -
Wind:- - ESE
Pressure: 30.23 in 30.14 in -
Precipitation: 0.00 in    
Historical Graphs
 
 
Tabular Data for August 26, 2017
Time Temperature Dew Point Pressure Wind Wind Speed Wind Gust Humidity Rainfall Rate (Hourly)
00:04 68.5 °F 60.3 °F 30.14 in NNE 3.1 mph 4.6 mph 75 % 0.00 in
00:09 68.5 °F 60.3 °F 30.14 in North 3.0 mph 5.8 mph 75 % 0.00 in
00:14 68.4 °F 59.0 °F 30.14 in NNW 3.2 mph 6.9 mph 72 % 0.00 in
00:19 68.4 °F 57.8 °F 30.14 in North 4.0 mph 8.1 mph 69 % 0.00 in
00:24 68.3 °F 57.3 °F 30.14 in NNE 4.9 mph 10.4 mph 68 % 0.00 in
00:29 68.3 °F 57.3 °F 30.14 in North 4.3 mph 6.0 mph 68 % 0.00 in
00:34 68.3 °F 57.3 °F 30.15 in NNE 6.4 mph 9.2 mph 68 % 0.00 in
00:39 68.3 °F 57.7 °F 30.15 in NE 5.3 mph 8.1 mph 69 % 0.00 in
00:44 68.3 °F 57.7 °F 30.14 in NE 3.2 mph 7.0 mph 69 % 0.00 in
00:49 68.3 °F 57.3 °F 30.14 in North 3.1 mph 8.1 mph 68 % 0.00 in
00:54 68.3 °F 57.3 °F 30.14 in NNE 4.9 mph 9.2 mph 68 % 0.00 in
00:59 68.2 °F 57.6 °F 30.14 in North 5.9 mph 9.0 mph 69 % 0.00 in
01:04 68.2 °F 57.6 °F 30.14 in NNE 6.6 mph 9.2 mph 69 % 0.00 in
01:09 68.1 °F 57.5 °F 30.14 in NNE 4.1 mph 6.9 mph 69 % 0.00 in
01:14 68.0 °F 57.4 °F 30.14 in NNE 4.4 mph 6.0 mph 69 % 0.00 in
01:19 67.9 °F 56.9 °F 30.14 in NE 5.3 mph 9.2 mph 68 % 0.00 in
01:24 67.9 °F 56.9 °F 30.14 in NNE 4.4 mph 8.1 mph 68 % 0.00 in
01:29 67.8 °F 56.9 °F 30.14 in NNE 2.9 mph 11.5 mph 68 % 0.00 in
01:34 67.7 °F 56.3 °F 30.14 in North 5.8 mph 8.1 mph 67 % 0.00 in
01:39 67.7 °F 56.3 °F 30.14 in North 6.2 mph 12.0 mph 67 % 0.00 in
01:44 67.7 °F 56.3 °F 30.14 in North 4.9 mph 8.1 mph 67 % 0.00 in
01:46 67.6 °F 56.3 °F 30.14 in North 3.0 mph 12.0 mph 67 % 0.00 in
01:51 67.6 °F 56.7 °F 30.14 in NNE 7.0 mph 12.0 mph 68 % 0.00 in
01:54 67.6 °F 56.2 °F 30.14 in NNE 7.7 mph 11.0 mph 67 % 0.00 in
02:00 67.5 °F 56.2 °F 30.14 in NNW 7.8 mph 9.2 mph 67 % 0.00 in
02:05 67.4 °F 55.6 °F 30.14 in North 6.9 mph 11.5 mph 66 % 0.00 in
02:10 67.4 °F 55.6 °F 30.15 in North 6.4 mph 11.5 mph 66 % 0.00 in
02:15 67.3 °F 56.4 °F 30.15 in NE 5.4 mph 9.2 mph 68 % 0.00 in
02:20 67.2 °F 56.7 °F 30.15 in NNE 6.6 mph 11.5 mph 69 % 0.00 in
02:25 67.1 °F 56.6 °F 30.15 in North 3.2 mph 8.1 mph 69 % 0.00 in
02:30 67.1 °F 56.6 °F 30.15 in North 3.9 mph 9.2 mph 69 % 0.00 in
02:35 67.0 °F 56.9 °F 30.15 in NE 3.5 mph 8.1 mph 70 % 0.00 in
02:40 66.9 °F 57.2 °F 30.15 in North 3.6 mph 8.1 mph 71 % 0.00 in
02:45 66.8 °F 57.1 °F 30.15 in NNE 5.9 mph 9.2 mph 71 % 0.00 in
02:50 66.8 °F 57.1 °F 30.15 in North 2.0 mph 3.5 mph 71 % 0.00 in
02:55 66.7 °F 57.0 °F 30.15 in NNE 3.2 mph 5.8 mph 71 % 0.00 in
03:00 66.6 °F 57.3 °F 30.15 in NNE 4.6 mph 6.9 mph 72 % 0.00 in
03:05 66.5 °F 57.2 °F 30.15 in ENE 0.8 mph 4.6 mph 72 % 0.00 in
03:10 66.4 °F 56.7 °F 30.16 in NE 1.7 mph 3.5 mph 71 % 0.00 in
03:15 66.3 °F 56.6 °F 30.16 in North 2.3 mph 5.0 mph 71 % 0.00 in
03:20 66.2 °F 56.5 °F 30.16 in NNE 1.9 mph 3.5 mph 71 % 0.00 in
03:25 66.1 °F 56.8 °F 30.16 in NNE 2.2 mph 6.9 mph 72 % 0.00 in
03:30 65.9 °F 56.6 °F 30.16 in NE 3.3 mph 6.9 mph 72 % 0.00 in
03:35 65.8 °F 56.5 °F 30.16 in NNE 3.3 mph 4.0 mph 72 % 0.00 in
03:40 65.7 °F 56.4 °F 30.16 in North 0.3 mph 4.6 mph 72 % 0.00 in
03:45 65.6 °F 56.7 °F 30.16 in North 2.4 mph 6.9 mph 73 % 0.00 in
03:50 65.5 °F 56.6 °F 30.16 in NNE 0.5 mph 3.5 mph 73 % 0.00 in
03:55 65.4 °F 56.1 °F 30.16 in NNE 3.0 mph 5.0 mph 72 % 0.00 in
04:00 65.3 °F 56.4 °F 30.16 in NNE 3.9 mph 5.8 mph 73 % 0.00 in
04:05 65.2 °F 56.3 °F 30.16 in North 0.7 mph 3.5 mph 73 % 0.00 in
04:10 65.1 °F 56.6 °F 30.16 in NNE 0.1 mph 1.2 mph 74 % 0.00 in
04:15 65.0 °F 56.5 °F 30.17 in NNW 3.2 mph 5.8 mph 74 % 0.00 in
04:20 64.9 °F 56.4 °F 30.17 in NNE 2.9 mph 5.0 mph 74 % 0.00 in
04:25 64.8 °F 56.3 °F 30.17 in NE 3.8 mph 6.0 mph 74 % 0.00 in
04:30 64.6 °F 56.1 °F 30.17 in North 2.7 mph 5.0 mph 74 % 0.00 in
04:35 64.5 °F 56.4 °F 30.17 in NNW 2.5 mph 5.8 mph 75 % 0.00 in
04:40 64.4 °F 56.3 °F 30.17 in NW 1.8 mph 4.6 mph 75 % 0.00 in
04:45 64.4 °F 56.3 °F 30.17 in NNE 0.9 mph 3.5 mph 75 % 0.00 in
04:50 64.3 °F 55.8 °F 30.17 in North 0.2 mph 1.2 mph 74 % 0.00 in
04:55 64.2 °F 56.1 °F 30.17 in NNE 0.1 mph 2.3 mph 75 % 0.00 in
05:00 64.1 °F 56.0 °F 30.17 in NW 2.6 mph 4.6 mph 75 % 0.00 in
05:05 64.0 °F 55.9 °F 30.17 in North 2.1 mph 3.5 mph 75 % 0.00 in
05:10 63.9 °F 56.2 °F 30.18 in NNE 2.2 mph 4.6 mph 76 % 0.00 in
05:16 63.8 °F 56.4 °F 30.18 in NNE 2.0 mph 6.0 mph 77 % 0.00 in
05:21 63.7 °F 56.4 °F 30.18 in North 2.0 mph 6.0 mph 77 % 0.00 in
05:26 63.6 °F 56.3 °F 30.18 in North 1.0 mph 6.0 mph 77 % 0.00 in
05:31 63.5 °F 55.8 °F 30.18 in NNE 3.0 mph 6.0 mph 76 % 0.00 in
05:36 63.5 °F 55.8 °F 30.18 in North 2.0 mph 5.0 mph 76 % 0.00 in
05:41 63.4 °F 55.7 °F 30.18 in Calm   5.0 mph 76 % 0.00 in
05:46 63.4 °F 56.1 °F 30.18 in North 2.0 mph 5.0 mph 77 % 0.00 in
05:51 63.3 °F 56.0 °F 30.19 in Calm   4.0 mph 77 % 0.00 in
05:56 63.2 °F 55.9 °F 30.19 in Calm   4.0 mph 77 % 0.00 in
06:01 63.2 °F 55.9 °F 30.19 in North 0.7 mph 2.3 mph 77 % 0.00 in
06:06 63.1 °F 55.8 °F 30.19 in NNE 1.0 mph 4.0 mph 77 % 0.00 in
06:11 63.0 °F 55.7 °F 30.19 in Calm     77 % 0.00 in
06:12 63.0 °F 55.7 °F 30.19 in Calm     77 % 0.00 in
06:18 62.9 °F 55.9 °F 30.19 in Calm     78 % 0.00 in
06:23 62.9 °F 55.9 °F 30.20 in Calm     78 % 0.00 in
06:28 62.8 °F 55.8 °F 30.20 in North 0.1 mph 2.3 mph 78 % 0.00 in
06:33 62.7 °F 56.1 °F 30.20 in North 0.7 mph 3.5 mph 79 % 0.00 in
06:38 62.5 °F 55.9 °F 30.20 in North 0.3 mph 3.5 mph 79 % 0.00 in
06:43 62.5 °F 55.9 °F 30.21 in Calm     79 % 0.00 in
06:48 62.4 °F 55.8 °F 30.20 in Calm   1.0 mph 79 % 0.00 in
06:53 62.4 °F 56.1 °F 30.20 in Calm   1.2 mph 80 % 0.00 in
06:58 62.3 °F 56.4 °F 30.20 in NNE 2.7 mph 3.5 mph 81 % 0.00 in
07:03 62.3 °F 56.4 °F 30.21 in NNE 1.4 mph 3.5 mph 81 % 0.00 in
07:08 62.3 °F 56.4 °F 30.21 in North 2.6 mph 4.6 mph 81 % 0.00 in
07:13 62.4 °F 56.5 °F 30.21 in NNE 2.8 mph 4.6 mph 81 % 0.00 in
07:18 62.4 °F 56.5 °F 30.21 in North 3.5 mph 4.6 mph 81 % 0.00 in
07:23 62.5 °F 56.9 °F 30.21 in North 0.8 mph 4.0 mph 82 % 0.00 in
07:28 62.6 °F 57.0 °F 30.21 in North 1.7 mph 3.5 mph 82 % 0.00 in
07:33 62.7 °F 57.1 °F 30.21 in North 1.9 mph 4.6 mph 82 % 0.00 in
07:36 62.8 °F 57.2 °F 30.21 in NNE 1.5 mph 3.5 mph 82 % 0.00 in
07:41 62.9 °F 57.3 °F 30.21 in North 2.0 mph 4.0 mph 82 % 0.00 in
07:46 63.1 °F 57.5 °F 30.21 in Calm   4.0 mph 82 % 0.00 in
07:51 63.2 °F 57.3 °F 30.21 in NNE 1.0 mph 3.0 mph 81 % 0.00 in
07:56 63.2 °F 57.3 °F 30.21 in Calm   4.0 mph 81 % 0.00 in
08:01 63.4 °F 57.1 °F 30.21 in NNE 1.4 mph 4.0 mph 80 % 0.00 in
08:06 63.5 °F 57.2 °F 30.21 in North 1.2 mph 3.5 mph 80 % 0.00 in
08:11 63.6 °F 57.3 °F 30.21 in NNE 0.7 mph 4.6 mph 80 % 0.00 in
08:16 63.8 °F 57.5 °F 30.22 in North 2.1 mph 5.0 mph 80 % 0.00 in
08:21 63.9 °F 57.3 °F 30.22 in North 2.7 mph 4.6 mph 79 % 0.00 in
08:26 64.0 °F 57.4 °F 30.21 in North 1.5 mph 3.5 mph 79 % 0.00 in
08:31 64.1 °F 57.5 °F 30.21 in NNE 2.9 mph 2.9 mph 79 % 0.00 in
08:36 64.2 °F 57.5 °F 30.21 in NNE 1.9 mph 4.0 mph 79 % 0.00 in
08:41 64.3 °F 57.6 °F 30.21 in North 0.2 mph 3.5 mph 79 % 0.00 in
08:46 64.4 °F 57.4 °F 30.21 in NE 2.5 mph 6.9 mph 78 % 0.00 in
08:51 64.6 °F 56.9 °F 30.21 in ENE 1.4 mph 4.0 mph 76 % 0.00 in
08:56 64.9 °F 57.5 °F 30.21 in NNE 1.2 mph 3.5 mph 77 % 0.00 in
09:01 65.0 °F 57.2 °F 30.21 in NE 3.0 mph 7.0 mph 76 % 0.00 in
09:06 65.2 °F 57.1 °F 30.21 in NE 2.4 mph 4.6 mph 75 % 0.00 in
09:11 65.4 °F 57.6 °F 30.21 in NNE 2.0 mph 5.0 mph 76 % 0.00 in
09:16 65.6 °F 57.8 °F 30.21 in North 2.5 mph 3.5 mph 76 % 0.00 in
09:21 65.7 °F 57.6 °F 30.22 in NE 4.3 mph 6.9 mph 75 % 0.00 in
09:26 65.9 °F 57.7 °F 30.22 in NNE 1.4 mph 3.5 mph 75 % 0.00 in
09:31 66.2 °F 57.3 °F 30.22 in North 3.8 mph 5.0 mph 73 % 0.00 in
09:36 66.4 °F 57.1 °F 30.22 in NE 3.4 mph 5.0 mph 72 % 0.00 in
09:41 66.7 °F 57.4 °F 30.22 in NE 2.0 mph 4.6 mph 72 % 0.00 in
09:46 67.1 °F 57.4 °F 30.22 in NNE 1.0 mph 3.5 mph 71 % 0.00 in
09:51 67.7 °F 57.6 °F 30.22 in NNE 1.4 mph 3.5 mph 70 % 0.00 in
09:56 68.4 °F 57.8 °F 30.22 in NNE 0.9 mph 3.5 mph 69 % 0.00 in
10:01 69.2 °F 58.6 °F 30.22 in NNE 1.4 mph 2.3 mph 69 % 0.00 in
10:06 69.7 °F 57.8 °F 30.23 in ENE 2.0 mph 3.5 mph 66 % 0.00 in
10:11 69.9 °F 56.7 °F 30.23 in NNE 2.7 mph 4.6 mph 63 % 0.00 in
10:16 70.0 °F 56.8 °F 30.22 in North 3.5 mph 6.9 mph 63 % 0.00 in
10:21 70.0 °F 58.1 °F 30.23 in North 4.1 mph 4.6 mph 66 % 0.00 in
10:26 69.9 °F 57.2 °F 30.23 in NE 3.0 mph 4.6 mph 64 % 0.00 in
10:31 69.8 °F 57.1 °F 30.22 in NE 2.3 mph 4.0 mph 64 % 0.00 in
10:36 69.9 °F 57.6 °F 30.23 in NE 2.2 mph 5.8 mph 65 % 0.00 in
10:41 70.1 °F 56.9 °F 30.23 in NNE 6.1 mph 8.1 mph 63 % 0.00 in
10:46 70.5 °F 57.7 °F 30.23 in North 3.1 mph 6.0 mph 64 % 0.00 in
10:52 71.0 °F 57.8 °F 30.23 in North 4.3 mph 5.8 mph 63 % 0.00 in
10:57 71.5 °F 57.8 °F 30.23 in ENE 1.3 mph 4.6 mph 62 % 0.00 in
11:02 72.3 °F 57.2 °F 30.23 in North 3.4 mph 6.9 mph 59 % 0.00 in
11:07 73.1 °F 59.3 °F 30.23 in NE 1.9 mph 3.5 mph 62 % 0.00 in
11:12 74.1 °F 59.3 °F 30.23 in ENE 4.8 mph 6.9 mph 60 % 0.00 in
11:17 74.6 °F 57.4 °F 30.23 in ENE 1.8 mph 6.9 mph 55 % 0.00 in
11:22 75.5 °F 60.6 °F 30.23 in NNW 2.4 mph 4.0 mph 60 % 0.00 in
11:27 76.2 °F 59.4 °F 30.22 in North 3.3 mph 4.0 mph 56 % 0.00 in
11:32 76.6 °F 59.2 °F 30.22 in ENE 2.8 mph 4.6 mph 55 % 0.00 in
11:37 76.7 °F 58.8 °F 30.22 in NE 0.8 mph 3.5 mph 54 % 0.00 in
11:42 77.2 °F 58.2 °F 30.22 in ENE 1.9 mph 3.5 mph 52 % 0.00 in
11:47 77.7 °F 59.2 °F 30.22 in NNE 1.4 mph 4.0 mph 53 % 0.00 in
11:52 78.1 °F 59.6 °F 30.22 in East 2.8 mph 5.0 mph 53 % 0.00 in
11:57 78.4 °F 59.9 °F 30.22 in NE 1.5 mph 5.0 mph 53 % 0.00 in
12:02 78.3 °F 57.0 °F 30.21 in NNE 3.6 mph 5.8 mph 48 % 0.00 in
12:07 78.5 °F 59.9 °F 30.21 in NNE 0.9 mph 3.5 mph 53 % 0.00 in
12:12 78.6 °F 57.8 °F 30.21 in ENE 2.4 mph 3.5 mph 49 % 0.00 in
12:17 78.5 °F 58.9 °F 30.21 in North 2.6 mph 6.9 mph 51 % 0.00 in
12:22 78.6 °F 56.7 °F 30.21 in ENE 1.1 mph 3.5 mph 47 % 0.00 in
12:28 78.6 °F 58.4 °F 30.20 in NNW 2.5 mph 4.6 mph 50 % 0.00 in
12:33 78.6 °F 59.0 °F 30.20 in North 1.9 mph 4.6 mph 51 % 0.00 in
12:38 78.5 °F 57.2 °F 30.20 in North 1.6 mph 4.6 mph 48 % 0.00 in
12:43 78.6 °F 57.3 °F 30.20 in North 2.4 mph 5.8 mph 48 % 0.00 in
12:48 78.6 °F 57.3 °F 30.21 in NNE 1.6 mph 3.5 mph 48 % 0.00 in
12:53 78.6 °F 59.5 °F 30.20 in North 1.6 mph 4.0 mph 52 % 0.00 in
12:58 78.8 °F 56.9 °F 30.20 in North 1.5 mph 4.0 mph 47 % 0.00 in
13:03 78.7 °F 57.4 °F 30.20 in NNE 0.7 mph 2.0 mph 48 % 0.00 in
13:08 78.8 °F 58.0 °F 30.20 in NNE 1.4 mph 5.0 mph 49 % 0.00 in
13:13 78.8 °F 57.4 °F 30.21 in ENE 1.5 mph 2.3 mph 48 % 0.00 in
13:18 78.8 °F 56.9 °F 30.20 in NNE 1.2 mph 3.5 mph 47 % 0.00 in
13:23 78.7 °F 56.2 °F 30.20 in NE 1.3 mph 4.0 mph 46 % 0.00 in
13:28 78.6 °F 56.1 °F 30.20 in NNE 0.4 mph 3.5 mph 46 % 0.00 in
13:33 78.8 °F 55.7 °F 30.20 in ENE 0.2 mph 3.5 mph 45 % 0.00 in
13:38 78.8 °F 55.7 °F 30.20 in NE 0.4 mph 1.2 mph 45 % 0.00 in
13:43 78.9 °F 54.5 °F 30.20 in NE 0.3 mph 2.3 mph 43 % 0.00 in
13:48 79.0 °F 55.2 °F 30.20 in NE 2.2 mph 3.5 mph 44 % 0.00 in
13:54 79.1 °F 57.1 °F 30.20 in NE 1.4 mph 7.0 mph 47 % 0.00 in
13:59 79.0 °F 56.5 °F 30.20 in North 0.9 mph 2.3 mph 46 % 0.00 in
14:04 79.1 °F 55.3 °F 30.20 in NE 0.9 mph 2.3 mph 44 % 0.00 in
14:09 79.2 °F 56.6 °F 30.20 in Calm   3.5 mph 46 % 0.00 in
14:14 79.4 °F 56.8 °F 30.20 in NE 0.4 mph 2.3 mph 46 % 0.00 in
14:19 79.5 °F 55.0 °F 30.19 in SE 0.9 mph 2.3 mph 43 % 0.00 in
14:24 79.7 °F 55.2 °F 30.19 in SE 0.2 mph 2.3 mph 43 % 0.00 in
14:29 79.7 °F 54.6 °F 30.19 in Calm   1.2 mph 42 % 0.00 in
14:34 79.8 °F 54.7 °F 30.19 in NNE 0.1 mph 2.3 mph 42 % 0.00 in
14:39 80.0 °F 55.5 °F 30.18 in NNE 0.1 mph 1.2 mph 43 % 0.00 in
14:44 80.1 °F 54.9 °F 30.19 in NNE 0.7 mph 3.5 mph 42 % 0.00 in
14:49 80.3 °F 54.5 °F 30.18 in North 1.3 mph 3.5 mph 41 % 0.00 in
14:54 80.4 °F 55.2 °F 30.18 in North 1.7 mph 3.5 mph 42 % 0.00 in
14:59 80.5 °F 54.0 °F 30.18 in NNW 0.4 mph 2.3 mph 40 % 0.00 in
15:04 80.4 °F 53.9 °F 30.18 in Calm     40 % 0.00 in
15:09 80.3 °F 55.1 °F 30.18 in North 1.7 mph 3.0 mph 42 % 0.00 in
15:14 80.3 °F 53.8 °F 30.18 in NNE 0.4 mph 2.3 mph 40 % 0.00 in
15:19 80.2 °F 54.4 °F 30.18 in NE 2.8 mph 3.5 mph 41 % 0.00 in
15:24 79.8 °F 55.9 °F 30.18 in NE 0.2 mph 2.3 mph 44 % 0.00 in
15:29 79.7 °F 55.2 °F 30.18 in NW 1.5 mph 3.5 mph 43 % 0.00 in
15:35 79.7 °F 54.6 °F 30.17 in WNW 1.0 mph 4.0 mph 42 % 0.00 in
15:39 79.7 °F 53.9 °F 30.17 in Calm   1.2 mph 41 % 0.00 in
15:44 79.8 °F 55.3 °F 30.17 in NNE 1.4 mph 3.5 mph 43 % 0.00 in
15:49 79.6 °F 55.8 °F 30.17 in NW 1.1 mph 1.2 mph 44 % 0.00 in
15:55 79.6 °F 54.5 °F 30.17 in Calm     42 % 0.00 in
15:58 79.5 °F 55.7 °F 30.17 in WNW 0.3 mph 2.3 mph 44 % 0.00 in
16:03 79.4 °F 55.6 °F 30.17 in WNW 0.6 mph 2.0 mph 44 % 0.00 in
16:08 79.4 °F 56.8 °F 30.17 in NW 0.1 mph 1.2 mph 46 % 0.00 in
16:13 79.5 °F 55.0 °F 30.17 in West 1.1 mph 2.3 mph 43 % 0.00 in
16:18 79.7 °F 53.9 °F 30.17 in West 1.7 mph 3.5 mph 41 % 0.00 in
16:23 79.7 °F 54.6 °F 30.17 in WSW 1.6 mph 3.5 mph 42 % 0.00 in
16:28 79.6 °F 55.8 °F 30.17 in WSW 1.2 mph 4.6 mph 44 % 0.00 in
16:33 79.4 °F 53.0 °F 30.17 in SW 0.7 mph 3.5 mph 40 % 0.00 in
16:38 79.3 °F 54.9 °F 30.17 in SW 1.1 mph 1.2 mph 43 % 0.00 in
16:43 79.1 °F 54.0 °F 30.17 in SW 1.0 mph 2.3 mph 42 % 0.00 in
16:48 78.9 °F 53.2 °F 30.17 in WSW 0.7 mph 3.5 mph 41 % 0.00 in
16:54 78.7 °F 53.7 °F 30.17 in West 1.2 mph 3.5 mph 42 % 0.00 in
16:59 78.6 °F 53.6 °F 30.16 in West 0.5 mph 3.5 mph 42 % 0.00 in
17:04 78.5 °F 54.1 °F 30.16 in Calm     43 % 0.00 in
17:09 78.4 °F 52.1 °F 30.17 in West 1.6 mph 3.5 mph 40 % 0.00 in
17:14 78.4 °F 51.4 °F 30.17 in Calm   1.2 mph 39 % 0.00 in
17:19 78.3 °F 54.6 °F 30.17 in West 0.3 mph 1.2 mph 44 % 0.00 in
17:24 78.0 °F 51.7 °F 30.17 in Calm     40 % 0.00 in
17:29 77.9 °F 50.9 °F 30.17 in Calm     39 % 0.00 in
17:34 77.7 °F 52.8 °F 30.17 in West 1.0 mph 3.5 mph 42 % 0.00 in
17:39 77.6 °F 54.6 °F 30.17 in Calm   1.2 mph 45 % 0.00 in
17:44 77.3 °F 52.4 °F 30.17 in Calm     42 % 0.00 in
17:49 77.2 °F 52.3 °F 30.17 in Calm   1.2 mph 42 % 0.00 in
17:54 77.0 °F 52.1 °F 30.17 in Calm     42 % 0.00 in
17:59 76.8 °F 50.6 °F 30.17 in Calm     40 % 0.00 in
18:04 76.7 °F 51.9 °F 30.17 in West 0.5 mph 1.2 mph 42 % 0.00 in
18:09 76.4 °F 51.6 °F 30.17 in Calm   1.2 mph 42 % 0.00 in
18:15 76.0 °F 50.6 °F 30.17 in West 0.3 mph 1.2 mph 41 % 0.00 in
18:20 75.8 °F 51.7 °F 30.17 in Calm     43 % 0.00 in
18:25 75.5 °F 51.4 °F 30.17 in Calm     43 % 0.00 in
18:30 75.2 °F 52.4 °F 30.17 in Calm     45 % 0.00 in
18:35 75.0 °F 52.2 °F 30.17 in Calm     45 % 0.00 in
18:40 74.7 °F 53.7 °F 30.17 in Calm     48 % 0.00 in
18:45 74.4 °F 54.5 °F 30.17 in Calm     50 % 0.00 in
18:50 74.2 °F 56.5 °F 30.17 in Calm     54 % 0.00 in
18:55 73.9 °F 57.2 °F 30.17 in Calm     56 % 0.00 in
19:00 73.5 °F 56.3 °F 30.17 in Calm     55 % 0.00 in
19:03 73.3 °F 56.7 °F 30.17 in Calm     56 % 0.00 in
19:08 72.9 °F 56.8 °F 30.17 in Calm     57 % 0.00 in
19:13 72.4 °F 56.8 °F 30.17 in Calm     58 % 0.00 in
19:18 72.0 °F 56.9 °F 30.17 in Calm     59 % 0.00 in
19:24 71.6 °F 57.4 °F 30.17 in Calm     61 % 0.00 in
19:29 71.1 °F 57.0 °F 30.17 in Calm     61 % 0.00 in
19:34 70.7 °F 57.0 °F 30.17 in Calm     62 % 0.00 in
19:39 70.3 °F 56.2 °F 30.17 in Calm     61 % 0.00 in
19:44 69.8 °F 56.2 °F 30.17 in Calm     62 % 0.00 in
19:49 69.2 °F 56.1 °F 30.18 in Calm     63 % 0.00 in
19:54 68.6 °F 56.4 °F 30.18 in Calm     65 % 0.00 in
19:59 68.2 °F 56.0 °F 30.18 in Calm     65 % 0.00 in
20:04 67.9 °F 56.1 °F 30.18 in Calm     66 % 0.00 in
20:09 67.5 °F 56.2 °F 30.18 in Calm     67 % 0.00 in
20:14 67.2 °F 55.9 °F 30.18 in Calm     67 % 0.00 in
20:19 66.9 °F 56.0 °F 30.18 in Calm     68 % 0.00 in
20:24 66.6 °F 56.1 °F 30.19 in Calm     69 % 0.00 in
20:29 66.3 °F 55.8 °F 30.19 in Calm     69 % 0.00 in
20:34 66.0 °F 55.9 °F 30.19 in Calm     70 % 0.00 in
20:39 65.7 °F 56.4 °F 30.19 in Calm     72 % 0.00 in
20:44 65.4 °F 56.1 °F 30.19 in Calm     72 % 0.00 in
20:49 65.2 °F 55.9 °F 30.19 in Calm     72 % 0.00 in
20:54 65.0 °F 55.8 °F 30.19 in Calm     72 % 0.00 in
20:59 64.8 °F 55.6 °F 30.19 in Calm     72 % 0.00 in
21:04 64.6 °F 56.1 °F 30.20 in West 1.1 mph 2.3 mph 74 % 0.00 in
21:09 64.4 °F 55.9 °F 30.20 in Calm     74 % 0.00 in
21:14 64.2 °F 55.7 °F 30.20 in West 0.2 mph 1.2 mph 74 % 0.00 in
21:19 64.1 °F 55.6 °F 30.20 in Calm     74 % 0.00 in
21:24 63.9 °F 55.4 °F 30.20 in West 0.1 mph   74 % 0.00 in
21:29 63.7 °F 56.0 °F 30.20 in Calm     76 % 0.00 in
21:34 63.5 °F 56.2 °F 30.20 in Calm     77 % 0.00 in
21:39 63.3 °F 56.0 °F 30.20 in Calm     77 % 0.00 in
21:44 63.2 °F 55.9 °F 30.20 in Calm     77 % 0.00 in
21:49 63.0 °F 56.0 °F 30.20 in Calm     78 % 0.00 in
21:54 62.8 °F 55.8 °F 30.20 in Calm     78 % 0.00 in
21:59 62.6 °F 55.6 °F 30.20 in Calm     78 % 0.00 in
22:04 62.4 °F 55.4 °F 30.20 in Calm     78 % 0.00 in
22:09 62.2 °F 55.6 °F 30.20 in Calm     79 % 0.00 in
22:15 62.0 °F 55.8 °F 30.20 in Calm     80 % 0.00 in
22:20 61.9 °F 55.7 °F 30.20 in Calm     80 % 0.00 in
22:25 61.7 °F 55.5 °F 30.20 in Calm     80 % 0.00 in
22:30 61.5 °F 55.6 °F 30.20 in Calm   1.0 mph 81 % 0.00 in
22:35 61.3 °F 55.4 °F 30.20 in Calm   1.2 mph 81 % 0.00 in
22:40 61.2 °F 55.7 °F 30.21 in West 0.4 mph 2.3 mph 82 % 0.00 in
22:45 61.0 °F 55.5 °F 30.21 in Calm     82 % 0.00 in
22:50 60.9 °F 55.4 °F 30.21 in Calm   1.2 mph 82 % 0.00 in
22:55 60.7 °F 55.2 °F 30.21 in Calm   1.2 mph 82 % 0.00 in
23:00 60.6 °F 55.1 °F 30.21 in Calm     82 % 0.00 in
23:05 60.5 °F 55.0 °F 30.21 in Calm   1.2 mph 82 % 0.00 in
23:10 60.4 °F 54.9 °F 30.21 in Calm     82 % 0.00 in
23:15 60.3 °F 54.8 °F 30.21 in Calm     82 % 0.00 in
23:20 60.2 °F 54.7 °F 30.21 in Calm     82 % 0.00 in
23:25 60.1 °F 54.6 °F 30.21 in Calm     82 % 0.00 in
23:30 60.0 °F 54.5 °F 30.21 in Calm     82 % 0.00 in
23:35 59.9 °F 54.4 °F 30.21 in Calm     82 % 0.00 in
23:40 59.9 °F 54.7 °F 30.21 in Calm     83 % 0.00 in
23:45 59.7 °F 54.5 °F 30.21 in West 0.2 mph 1.0 mph 83 % 0.00 in
23:50 59.6 °F 54.8 °F 30.21 in Calm     84 % 0.00 in
23:55 59.5 °F 54.3 °F 30.21 in West 0.1 mph   83 % 0.00 in
Crab Meadow Weather
Compliments of Weather Underground - 3 mb

Script developed by  Jim McMurry - jmcmurry@mwt.net Adapted for the template by  Wim van der Kuil - Leuven-Template.eu

Recycling: A used aluminum can is recycled and back on the grocery shelf as a new can, in as little as 60 days.